sensor_id;sensor_type;location;lat;lon;timestamp;pressure;altitude;pressure_sealevel;temperature;humidity
3150;BME280;32503;47.748;8.960;2022-07-04T00:00:45;97053.91;;;24.11;57.32
3150;BME280;32503;47.748;8.960;2022-07-04T00:03:12;97046.47;;;23.95;57.37
3150;BME280;32503;47.748;8.960;2022-07-04T00:05:40;97048.59;;;24.04;57.57
3150;BME280;32503;47.748;8.960;2022-07-04T00:08:08;97045.84;;;24.04;57.27
3150;BME280;32503;47.748;8.960;2022-07-04T00:10:35;97038.88;;;23.99;57.33
3150;BME280;32503;47.748;8.960;2022-07-04T00:13:02;97018.66;;;23.90;57.56
3150;BME280;32503;47.748;8.960;2022-07-04T00:15:29;97007.31;;;23.71;58.07
3150;BME280;32503;47.748;8.960;2022-07-04T00:17:56;97002.00;;;23.64;58.14
3150;BME280;32503;47.748;8.960;2022-07-04T00:20:23;97017.78;;;23.63;57.90
3150;BME280;32503;47.748;8.960;2022-07-04T00:22:50;97028.72;;;23.67;58.49
3150;BME280;32503;47.748;8.960;2022-07-04T00:25:19;97040.00;;;23.73;58.29
3150;BME280;32503;47.748;8.960;2022-07-04T00:27:46;97042.66;;;23.76;58.45
3150;BME280;32503;47.748;8.960;2022-07-04T00:30:13;97038.63;;;23.81;58.75
3150;BME280;32503;47.748;8.960;2022-07-04T00:32:40;97036.25;;;23.79;58.99
3150;BME280;32503;47.748;8.960;2022-07-04T00:35:08;97025.22;;;23.79;59.26
3150;BME280;32503;47.748;8.960;2022-07-04T00:37:35;97026.34;;;23.82;59.06
3150;BME280;32503;47.748;8.960;2022-07-04T00:40:03;97031.34;;;23.87;59.13
3150;BME280;32503;47.748;8.960;2022-07-04T00:42:32;97031.75;;;23.85;59.22
3150;BME280;32503;47.748;8.960;2022-07-04T00:44:59;97027.56;;;23.81;59.46
3150;BME280;32503;47.748;8.960;2022-07-04T00:47:26;97028.84;;;23.76;59.85
3150;BME280;32503;47.748;8.960;2022-07-04T00:49:53;97031.72;;;23.73;59.82
3150;BME280;32503;47.748;8.960;2022-07-04T00:52:20;97039.00;;;23.66;60.26
3150;BME280;32503;47.748;8.960;2022-07-04T00:54:48;97037.75;;;23.55;60.31
3150;BME280;32503;47.748;8.960;2022-07-04T00:57:15;97039.28;;;23.56;60.45
3150;BME280;32503;47.748;8.960;2022-07-04T00:59:44;97040.94;;;23.53;60.41
3150;BME280;32503;47.748;8.960;2022-07-04T01:02:11;97033.19;;;23.48;60.74
3150;BME280;32503;47.748;8.960;2022-07-04T01:04:38;97032.75;;;23.50;60.63
3150;BME280;32503;47.748;8.960;2022-07-04T01:07:06;97036.38;;;23.46;60.65
3150;BME280;32503;47.748;8.960;2022-07-04T01:09:34;97032.19;;;23.42;60.78
3150;BME280;32503;47.748;8.960;2022-07-04T01:12:03;97040.53;;;23.38;61.15
3150;BME280;32503;47.748;8.960;2022-07-04T01:14:31;97031.91;;;23.36;61.31
3150;BME280;32503;47.748;8.960;2022-07-04T01:16:59;97022.63;;;23.30;61.68
3150;BME280;32503;47.748;8.960;2022-07-04T01:19:26;97036.09;;;23.28;61.58
3150;BME280;32503;47.748;8.960;2022-07-04T01:21:55;97034.19;;;23.25;61.79
3150;BME280;32503;47.748;8.960;2022-07-04T01:24:22;97043.75;;;23.20;62.18
3150;BME280;32503;47.748;8.960;2022-07-04T01:26:49;97045.09;;;23.16;62.39
3150;BME280;32503;47.748;8.960;2022-07-04T01:29:16;97035.59;;;23.17;62.35
3150;BME280;32503;47.748;8.960;2022-07-04T01:31:45;97039.03;;;23.21;62.27
3150;BME280;32503;47.748;8.960;2022-07-04T01:34:12;97037.16;;;23.18;62.28
3150;BME280;32503;47.748;8.960;2022-07-04T01:36:39;97047.31;;;23.21;62.05
3150;BME280;32503;47.748;8.960;2022-07-04T01:39:08;97068.16;;;23.22;61.84
3150;BME280;32503;47.748;8.960;2022-07-04T01:41:35;97074.38;;;23.09;62.88
3150;BME280;32503;47.748;8.960;2022-07-04T01:44:02;97090.63;;;23.04;63.06
3150;BME280;32503;47.748;8.960;2022-07-04T01:46:30;97091.84;;;22.86;63.89
3150;BME280;32503;47.748;8.960;2022-07-04T01:48:57;97096.50;;;22.73;64.38
3150;BME280;32503;47.748;8.960;2022-07-04T01:51:24;97091.13;;;22.66;64.86
3150;BME280;32503;47.748;8.960;2022-07-04T01:53:51;97090.47;;;22.62;65.02
3150;BME280;32503;47.748;8.960;2022-07-04T01:56:19;97093.22;;;22.62;65.08
3150;BME280;32503;47.748;8.960;2022-07-04T01:58:46;97095.19;;;22.61;65.02
3150;BME280;32503;47.748;8.960;2022-07-04T02:01:13;97088.47;;;22.62;65.16
3150;BME280;32503;47.748;8.960;2022-07-04T02:04:00;97075.06;;;22.64;64.94
3150;BME280;32503;47.748;8.960;2022-07-04T02:06:27;97078.50;;;22.68;64.63
3150;BME280;32503;47.748;8.960;2022-07-04T02:08:55;97083.16;;;22.71;64.72
3150;BME280;32503;47.748;8.960;2022-07-04T02:11:42;97081.59;;;22.70;64.60
3150;BME280;32503;47.748;8.960;2022-07-04T02:14:26;97072.81;;;22.76;64.59
3150;BME280;32503;47.748;8.960;2022-07-04T02:16:54;97071.72;;;22.73;64.70
3150;BME280;32503;47.748;8.960;2022-07-04T02:19:21;97079.88;;;22.77;64.90
3150;BME280;32503;47.748;8.960;2022-07-04T02:21:48;97093.22;;;22.78;64.88
3150;BME280;32503;47.748;8.960;2022-07-04T02:24:15;97113.63;;;22.81;65.33
3150;BME280;32503;47.748;8.960;2022-07-04T02:26:43;97138.09;;;22.79;65.85
3150;BME280;32503;47.748;8.960;2022-07-04T02:29:10;97148.00;;;22.76;66.01
3150;BME280;32503;47.748;8.960;2022-07-04T02:31:38;97131.19;;;22.70;66.28
3150;BME280;32503;47.748;8.960;2022-07-04T02:34:05;97141.03;;;22.71;66.22
3150;BME280;32503;47.748;8.960;2022-07-04T02:36:32;97141.44;;;22.70;66.25
3150;BME280;32503;47.748;8.960;2022-07-04T02:38:59;97149.22;;;22.75;66.56
3150;BME280;32503;47.748;8.960;2022-07-04T02:41:26;97147.31;;;22.72;66.60
3150;BME280;32503;47.748;8.960;2022-07-04T02:43:55;97138.28;;;22.71;66.67
3150;BME280;32503;47.748;8.960;2022-07-04T02:46:22;97145.81;;;22.67;66.53
3150;BME280;32503;47.748;8.960;2022-07-04T02:48:49;97152.47;;;22.70;66.54
3150;BME280;32503;47.748;8.960;2022-07-04T02:51:16;97154.81;;;22.71;66.35
3150;BME280;32503;47.748;8.960;2022-07-04T02:53:44;97165.63;;;22.62;66.43
3150;BME280;32503;47.748;8.960;2022-07-04T02:56:11;97206.38;;;22.71;66.45
3150;BME280;32503;47.748;8.960;2022-07-04T02:58:38;97217.13;;;22.65;66.83
3150;BME280;32503;47.748;8.960;2022-07-04T03:01:06;97222.00;;;22.58;66.98
3150;BME280;32503;47.748;8.960;2022-07-04T03:03:34;97228.09;;;22.49;67.34
3150;BME280;32503;47.748;8.960;2022-07-04T03:06:01;97209.09;;;22.34;67.88
3150;BME280;32503;47.748;8.960;2022-07-04T03:08:28;97232.53;;;22.43;67.64
3150;BME280;32503;47.748;8.960;2022-07-04T03:10:55;97254.94;;;22.45;67.40
3150;BME280;32503;47.748;8.960;2022-07-04T03:13:22;97256.81;;;22.48;67.66
3150;BME280;32503;47.748;8.960;2022-07-04T03:15:50;97251.38;;;22.44;67.41
3150;BME280;32503;47.748;8.960;2022-07-04T03:18:19;97258.97;;;22.40;67.66
3150;BME280;32503;47.748;8.960;2022-07-04T03:20:46;97255.78;;;22.42;67.42
3150;BME280;32503;47.748;8.960;2022-07-04T03:23:14;97262.13;;;22.39;67.69
3150;BME280;32503;47.748;8.960;2022-07-04T03:25:42;97255.56;;;22.32;67.31
3150;BME280;32503;47.748;8.960;2022-07-04T03:28:09;97248.50;;;22.31;67.16
3150;BME280;32503;47.748;8.960;2022-07-04T03:30:36;97239.06;;;22.32;67.26
3150;BME280;32503;47.748;8.960;2022-07-04T03:33:04;97237.34;;;22.39;67.09
3150;BME280;32503;47.748;8.960;2022-07-04T03:35:32;97228.81;;;22.33;67.19
3150;BME280;32503;47.748;8.960;2022-07-04T03:37:59;97231.97;;;22.31;66.83
3150;BME280;32503;47.748;8.960;2022-07-04T03:40:26;97225.00;;;22.23;66.62
3150;BME280;32503;47.748;8.960;2022-07-04T03:42:57;97227.78;;;22.23;66.77
3150;BME280;32503;47.748;8.960;2022-07-04T03:45:24;97239.94;;;22.26;66.92
3150;BME280;32503;47.748;8.960;2022-07-04T03:47:52;97231.31;;;22.24;67.28
3150;BME280;32503;47.748;8.960;2022-07-04T03:50:19;97228.19;;;22.22;67.54
3150;BME280;32503;47.748;8.960;2022-07-04T03:52:48;97225.00;;;22.23;67.30
3150;BME280;32503;47.748;8.960;2022-07-04T03:55:15;97224.19;;;22.26;67.16
3150;BME280;32503;47.748;8.960;2022-07-04T03:57:42;97237.50;;;22.31;66.78
3150;BME280;32503;47.748;8.960;2022-07-04T04:00:10;97231.22;;;22.31;67.07
3150;BME280;32503;47.748;8.960;2022-07-04T04:02:38;97215.53;;;22.28;67.37
3150;BME280;32503;47.748;8.960;2022-07-04T04:05:07;97208.84;;;22.25;67.31
3150;BME280;32503;47.748;8.960;2022-07-04T04:07:54;97210.81;;;22.25;67.53
3150;BME280;32503;47.748;8.960;2022-07-04T04:10:22;97210.53;;;22.19;67.66
3150;BME280;32503;47.748;8.960;2022-07-04T04:12:49;97203.53;;;22.14;67.80
3150;BME280;32503;47.748;8.960;2022-07-04T04:15:16;97197.69;;;22.12;67.93
3150;BME280;32503;47.748;8.960;2022-07-04T04:17:44;97190.19;;;22.13;67.70
3150;BME280;32503;47.748;8.960;2022-07-04T04:20:11;97187.44;;;22.13;67.82
3150;BME280;32503;47.748;8.960;2022-07-04T04:22:38;97189.78;;;22.14;67.63
3150;BME280;32503;47.748;8.960;2022-07-04T04:25:08;97174.91;;;22.12;67.65
3150;BME280;32503;47.748;8.960;2022-07-04T04:27:35;97189.63;;;22.22;67.09
3150;BME280;32503;47.748;8.960;2022-07-04T04:30:03;97169.94;;;22.23;66.71
3150;BME280;32503;47.748;8.960;2022-07-04T04:32:30;97183.28;;;22.25;66.63
3150;BME280;32503;47.748;8.960;2022-07-04T04:34:58;97176.19;;;22.27;66.35
3150;BME280;32503;47.748;8.960;2022-07-04T04:37:25;97189.56;;;22.25;66.37
3150;BME280;32503;47.748;8.960;2022-07-04T04:39:52;97190.78;;;22.24;66.41
3150;BME280;32503;47.748;8.960;2022-07-04T04:42:21;97200.22;;;22.23;66.73
3150;BME280;32503;47.748;8.960;2022-07-04T04:44:48;97195.53;;;22.24;66.93
3150;BME280;32503;47.748;8.960;2022-07-04T04:47:15;97177.78;;;22.25;67.01
3150;BME280;32503;47.748;8.960;2022-07-04T04:49:42;97180.84;;;22.30;66.95
3150;BME280;32503;47.748;8.960;2022-07-04T04:52:10;97174.56;;;22.30;66.54
3150;BME280;32503;47.748;8.960;2022-07-04T04:54:37;97192.50;;;22.38;66.49
3150;BME280;32503;47.748;8.960;2022-07-04T04:57:05;97194.75;;;22.43;66.12
3150;BME280;32503;47.748;8.960;2022-07-04T04:59:33;97202.88;;;22.50;65.79
3150;BME280;32503;47.748;8.960;2022-07-04T05:02:01;97193.78;;;22.33;66.02
3150;BME280;32503;47.748;8.960;2022-07-04T05:04:28;97214.41;;;22.45;66.17
3150;BME280;32503;47.748;8.960;2022-07-04T05:06:56;97225.00;;;22.47;66.16
3150;BME280;32503;47.748;8.960;2022-07-04T05:09:23;97235.59;;;22.48;66.28
3150;BME280;32503;47.748;8.960;2022-07-04T05:11:51;97249.72;;;22.50;66.46
3150;BME280;32503;47.748;8.960;2022-07-04T05:14:18;97227.88;;;22.40;66.76
3150;BME280;32503;47.748;8.960;2022-07-04T05:16:47;97262.19;;;22.55;67.05
3150;BME280;32503;47.748;8.960;2022-07-04T05:19:14;97269.28;;;22.56;67.06
3150;BME280;32503;47.748;8.960;2022-07-04T05:21:41;97267.34;;;22.53;67.30
3150;BME280;32503;47.748;8.960;2022-07-04T05:24:08;97260.31;;;22.52;67.06
3150;BME280;32503;47.748;8.960;2022-07-04T05:26:37;97270.84;;;22.57;67.13
3150;BME280;32503;47.748;8.960;2022-07-04T05:29:04;97277.88;;;22.58;67.23
3150;BME280;32503;47.748;8.960;2022-07-04T05:31:31;97275.63;;;22.53;67.55
3150;BME280;32503;47.748;8.960;2022-07-04T05:33:59;97276.66;;;22.39;68.22
3150;BME280;32503;47.748;8.960;2022-07-04T05:36:28;97280.78;;;22.31;68.51
3150;BME280;32503;47.748;8.960;2022-07-04T05:38:56;97290.75;;;22.21;69.08
3150;BME280;32503;47.748;8.960;2022-07-04T05:41:23;97281.78;;;22.17;69.15
3150;BME280;32503;47.748;8.960;2022-07-04T05:43:50;97281.78;;;22.17;69.34
3150;BME280;32503;47.748;8.960;2022-07-04T05:46:17;97270.78;;;22.17;69.46
3150;BME280;32503;47.748;8.960;2022-07-04T05:48:45;97275.06;;;22.18;69.40
3150;BME280;32503;47.748;8.960;2022-07-04T05:51:13;97276.28;;;22.17;69.62
3150;BME280;32503;47.748;8.960;2022-07-04T05:53:40;97275.13;;;22.14;69.70
3150;BME280;32503;47.748;8.960;2022-07-04T05:56:07;97284.97;;;22.15;69.23
3150;BME280;32503;47.748;8.960;2022-07-04T05:58:34;97280.22;;;22.16;69.19
3150;BME280;32503;47.748;8.960;2022-07-04T06:01:01;97284.06;;;22.22;68.79
3150;BME280;32503;47.748;8.960;2022-07-04T06:03:29;97277.69;;;22.25;68.71
3150;BME280;32503;47.748;8.960;2022-07-04T06:05:56;97284.75;;;22.26;68.99
3150;BME280;32503;47.748;8.960;2022-07-04T06:08:24;97292.81;;;22.17;69.06
3150;BME280;32503;47.748;8.960;2022-07-04T06:10:51;97272.78;;;22.13;69.17
3150;BME280;32503;47.748;8.960;2022-07-04T06:13:18;97285.03;;;22.12;68.98
3150;BME280;32503;47.748;8.960;2022-07-04T06:15:46;97274.84;;;22.09;68.95
3150;BME280;32503;47.748;8.960;2022-07-04T06:18:13;97264.97;;;22.11;68.86
3150;BME280;32503;47.748;8.960;2022-07-04T06:20:41;97262.94;;;22.15;68.67
3150;BME280;32503;47.748;8.960;2022-07-04T06:23:08;97263.69;;;22.16;68.85
3150;BME280;32503;47.748;8.960;2022-07-04T06:25:37;97249.59;;;22.14;69.29
3150;BME280;32503;47.748;8.960;2022-07-04T06:28:04;97251.28;;;22.08;69.80
3150;BME280;32503;47.748;8.960;2022-07-04T06:30:31;97223.09;;;22.00;70.18
3150;BME280;32503;47.748;8.960;2022-07-04T06:32:58;97228.09;;;21.85;70.87
3150;BME280;32503;47.748;8.960;2022-07-04T06:35:28;97217.97;;;21.78;71.58
3150;BME280;32503;47.748;8.960;2022-07-04T06:38:17;97229.75;;;21.79;71.27
3150;BME280;32503;47.748;8.960;2022-07-04T06:40:46;97241.50;;;21.83;71.12
3150;BME280;32503;47.748;8.960;2022-07-04T06:43:15;97239.09;;;21.85;71.23
3150;BME280;32503;47.748;8.960;2022-07-04T06:45:42;97237.75;;;21.93;71.07
3150;BME280;32503;47.748;8.960;2022-07-04T06:48:10;97228.13;;;22.05;70.81
3150;BME280;32503;47.748;8.960;2022-07-04T06:50:37;97208.78;;;22.09;70.36
3150;BME280;32503;47.748;8.960;2022-07-04T06:53:07;97209.75;;;21.99;71.47
3150;BME280;32503;47.748;8.960;2022-07-04T06:55:35;97188.59;;;21.95;71.58
3150;BME280;32503;47.748;8.960;2022-07-04T06:58:04;97170.66;;;21.87;72.01
3150;BME280;32503;47.748;8.960;2022-07-04T07:00:32;97169.81;;;21.90;71.80
3150;BME280;32503;47.748;8.960;2022-07-04T07:03:01;97178.28;;;22.00;71.41
3150;BME280;32503;47.748;8.960;2022-07-04T07:05:29;97190.78;;;22.04;70.98
3150;BME280;32503;47.748;8.960;2022-07-04T07:07:56;97221.91;;;22.21;70.66
3150;BME280;32503;47.748;8.960;2022-07-04T07:10:23;97236.16;;;22.40;70.40
3150;BME280;32503;47.748;8.960;2022-07-04T07:12:51;97231.03;;;22.58;70.23
3150;BME280;32503;47.748;8.960;2022-07-04T07:15:19;97216.97;;;22.72;69.60
3150;BME280;32503;47.748;8.960;2022-07-04T07:17:46;97224.06;;;22.90;69.32
3150;BME280;32503;47.748;8.960;2022-07-04T07:20:14;97214.16;;;23.13;69.25
3150;BME280;32503;47.748;8.960;2022-07-04T07:22:41;97217.44;;;23.57;68.75
3150;BME280;32503;47.748;8.960;2022-07-04T07:25:09;97209.75;;;24.10;67.25
3150;BME280;32503;47.748;8.960;2022-07-04T07:27:37;97203.69;;;24.45;65.07
3150;BME280;32503;47.748;8.960;2022-07-04T07:30:05;97193.81;;;24.73;64.64
3150;BME280;32503;47.748;8.960;2022-07-04T07:32:34;97187.41;;;25.02;62.62
3150;BME280;32503;47.748;8.960;2022-07-04T07:35:01;97177.91;;;25.03;61.80
3150;BME280;32503;47.748;8.960;2022-07-04T07:37:28;97175.13;;;25.03;61.79
3150;BME280;32503;47.748;8.960;2022-07-04T07:39:55;97174.47;;;25.11;61.63
3150;BME280;32503;47.748;8.960;2022-07-04T07:42:24;97163.06;;;25.22;61.74
3150;BME280;32503;47.748;8.960;2022-07-04T07:44:51;97153.13;;;25.25;61.18
3150;BME280;32503;47.748;8.960;2022-07-04T07:47:18;97141.13;;;25.41;60.84
3150;BME280;32503;47.748;8.960;2022-07-04T07:49:47;97128.50;;;25.74;60.24
3150;BME280;32503;47.748;8.960;2022-07-04T07:52:14;97127.56;;;26.13;59.06
3150;BME280;32503;47.748;8.960;2022-07-04T07:54:41;97119.69;;;26.33;57.58
3150;BME280;32503;47.748;8.960;2022-07-04T07:57:08;97132.66;;;26.67;56.66
3150;BME280;32503;47.748;8.960;2022-07-04T07:59:36;97138.31;;;26.86;56.41
3150;BME280;32503;47.748;8.960;2022-07-04T08:02:03;97148.81;;;27.00;55.78
3150;BME280;32503;47.748;8.960;2022-07-04T08:04:30;97136.38;;;27.14;53.98
3150;BME280;32503;47.748;8.960;2022-07-04T08:07:07;97146.50;;;26.99;54.62
3150;BME280;32503;47.748;8.960;2022-07-04T08:09:35;97157.28;;;26.97;55.49
3150;BME280;32503;47.748;8.960;2022-07-04T08:12:05;97156.31;;;26.91;55.12
3150;BME280;32503;47.748;8.960;2022-07-04T08:14:34;97167.81;;;27.11;54.68
3150;BME280;32503;47.748;8.960;2022-07-04T08:17:02;97162.28;;;27.20;53.94
3150;BME280;32503;47.748;8.960;2022-07-04T08:19:31;97166.50;;;26.09;55.30
3150;BME280;32503;47.748;8.960;2022-07-04T08:21:58;97165.03;;;26.17;56.82
3150;BME280;32503;47.748;8.960;2022-07-04T08:24:26;97158.63;;;26.29;56.64
3150;BME280;32503;47.748;8.960;2022-07-04T08:26:53;97171.38;;;26.27;57.48
3150;BME280;32503;47.748;8.960;2022-07-04T08:29:21;97172.09;;;25.83;57.08
3150;BME280;32503;47.748;8.960;2022-07-04T08:31:48;97169.91;;;25.78;57.45
3150;BME280;32503;47.748;8.960;2022-07-04T08:34:15;97172.22;;;25.80;57.83
3150;BME280;32503;47.748;8.960;2022-07-04T08:36:42;97162.22;;;25.95;58.02
3150;BME280;32503;47.748;8.960;2022-07-04T08:39:10;97161.09;;;26.05;57.19
3150;BME280;32503;47.748;8.960;2022-07-04T08:41:40;97152.31;;;26.29;56.66
3150;BME280;32503;47.748;8.960;2022-07-04T08:44:09;97150.75;;;26.59;56.46
3150;BME280;32503;47.748;8.960;2022-07-04T08:46:39;97148.59;;;26.85;55.40
3150;BME280;32503;47.748;8.960;2022-07-04T08:49:14;97150.38;;;27.11;54.63
3150;BME280;32503;47.748;8.960;2022-07-04T08:51:51;97138.75;;;27.34;54.09
3150;BME280;32503;47.748;8.960;2022-07-04T08:54:22;97156.97;;;27.72;53.13
3150;BME280;32503;47.748;8.960;2022-07-04T08:57:08;97150.97;;;27.74;51.67
3150;BME280;32503;47.748;8.960;2022-07-04T08:59:54;97157.47;;;27.80;51.25
3150;BME280;32503;47.748;8.960;2022-07-04T09:02:22;97163.47;;;27.78;51.15
3150;BME280;32503;47.748;8.960;2022-07-04T09:04:50;97158.25;;;28.08;51.37
3150;BME280;32503;47.748;8.960;2022-07-04T09:07:17;97164.72;;;28.05;50.75
3150;BME280;32503;47.748;8.960;2022-07-04T09:09:45;97156.66;;;27.79;51.80
3150;BME280;32503;47.748;8.960;2022-07-04T09:12:14;97160.72;;;27.19;52.74
3150;BME280;32503;47.748;8.960;2022-07-04T09:14:41;97163.25;;;27.27;53.95
3150;BME280;32503;47.748;8.960;2022-07-04T09:17:08;97163.03;;;27.21;53.30
3150;BME280;32503;47.748;8.960;2022-07-04T09:19:35;97165.81;;;27.21;53.80
3150;BME280;32503;47.748;8.960;2022-07-04T09:22:04;97166.91;;;27.14;54.65
3150;BME280;32503;47.748;8.960;2022-07-04T09:24:47;97152.06;;;26.99;53.94
3150;BME280;32503;47.748;8.960;2022-07-04T09:27:34;97157.09;;;26.91;54.26
3150;BME280;32503;47.748;8.960;2022-07-04T09:30:03;97157.34;;;27.24;54.67
3150;BME280;32503;47.748;8.960;2022-07-04T09:32:35;97162.72;;;27.78;53.71
3150;BME280;32503;47.748;8.960;2022-07-04T09:35:05;97157.88;;;28.34;52.39
3150;BME280;32503;47.748;8.960;2022-07-04T09:37:38;97154.19;;;28.89;50.94
3150;BME280;32503;47.748;8.960;2022-07-04T09:40:09;97153.84;;;29.29;50.03
3150;BME280;32503;47.748;8.960;2022-07-04T09:42:40;97152.16;;;29.56;48.57
3150;BME280;32503;47.748;8.960;2022-07-04T09:45:10;97149.56;;;29.92;48.62
3150;BME280;32503;47.748;8.960;2022-07-04T09:47:39;97141.03;;;30.10;46.58
3150;BME280;32503;47.748;8.960;2022-07-04T09:50:08;97132.63;;;30.34;45.70
3150;BME280;32503;47.748;8.960;2022-07-04T09:52:48;97135.19;;;30.68;44.64
3150;BME280;32503;47.748;8.960;2022-07-04T09:55:24;97134.47;;;30.88;43.54
3150;BME280;32503;47.748;8.960;2022-07-04T09:57:55;97140.44;;;30.95;43.77
3150;BME280;32503;47.748;8.960;2022-07-04T10:00:25;97140.47;;;30.80;43.96
3150;BME280;32503;47.748;8.960;2022-07-04T10:02:54;97152.59;;;30.77;44.22
3150;BME280;32503;47.748;8.960;2022-07-04T10:05:25;97151.06;;;30.61;43.79
3150;BME280;32503;47.748;8.960;2022-07-04T10:07:55;97161.09;;;30.53;43.05
3150;BME280;32503;47.748;8.960;2022-07-04T10:10:30;97151.25;;;30.73;44.03
3150;BME280;32503;47.748;8.960;2022-07-04T10:13:03;97152.41;;;30.66;43.09
3150;BME280;32503;47.748;8.960;2022-07-04T10:15:31;97158.38;;;30.74;41.90
3150;BME280;32503;47.748;8.960;2022-07-04T10:17:59;97152.38;;;30.81;42.35
3150;BME280;32503;47.748;8.960;2022-07-04T10:20:27;97144.94;;;31.08;42.69
3150;BME280;32503;47.748;8.960;2022-07-04T10:22:54;97148.16;;;30.86;42.19
3150;BME280;32503;47.748;8.960;2022-07-04T10:25:21;97152.03;;;30.43;43.09
3150;BME280;32503;47.748;8.960;2022-07-04T10:27:48;97152.78;;;30.29;43.68
3150;BME280;32503;47.748;8.960;2022-07-04T10:30:24;97154.88;;;30.19;43.23
3150;BME280;32503;47.748;8.960;2022-07-04T10:32:52;97148.91;;;30.27;43.02
3150;BME280;32503;47.748;8.960;2022-07-04T10:35:48;97133.38;;;30.35;42.95
3150;BME280;32503;47.748;8.960;2022-07-04T10:38:16;97093.16;;;30.27;43.38
3150;BME280;32503;47.748;8.960;2022-07-04T10:40:46;97123.06;;;30.71;43.42
3150;BME280;32503;47.748;8.960;2022-07-04T10:43:53;97132.59;;;30.49;43.69
3150;BME280;32503;47.748;8.960;2022-07-04T10:46:37;97129.03;;;30.34;43.92
3150;BME280;32503;47.748;8.960;2022-07-04T10:49:08;97126.72;;;30.32;43.34
3150;BME280;32503;47.748;8.960;2022-07-04T10:51:45;97125.91;;;30.41;43.17
3150;BME280;32503;47.748;8.960;2022-07-04T10:54:15;97126.22;;;30.63;43.43
3150;BME280;32503;47.748;8.960;2022-07-04T10:56:46;97125.47;;;30.78;43.17
3150;BME280;32503;47.748;8.960;2022-07-04T10:59:17;97125.81;;;30.86;44.40
3150;BME280;32503;47.748;8.960;2022-07-04T11:04:51;97114.66;;;30.86;42.36
3150;BME280;32503;47.748;8.960;2022-07-04T11:07:19;97131.25;;;30.59;41.63
3150;BME280;32503;47.748;8.960;2022-07-04T11:10:21;97115.47;;;30.27;42.54
3150;BME280;32503;47.748;8.960;2022-07-04T11:13:17;97115.38;;;30.06;43.55
3150;BME280;32503;47.748;8.960;2022-07-04T11:16:04;97117.88;;;28.92;43.60
3150;BME280;32503;47.748;8.960;2022-07-04T11:18:49;97119.28;;;28.88;46.16
3150;BME280;32503;47.748;8.960;2022-07-04T11:21:20;97119.28;;;28.88;46.29
3150;BME280;32503;47.748;8.960;2022-07-04T11:23:55;97117.53;;;28.66;43.59
3150;BME280;32503;47.748;8.960;2022-07-04T11:26:25;97113.72;;;29.21;44.02
3150;BME280;32503;47.748;8.960;2022-07-04T11:28:52;97115.09;;;29.65;44.01
3150;BME280;32503;47.748;8.960;2022-07-04T11:31:19;97118.75;;;29.32;43.54
3150;BME280;32503;47.748;8.960;2022-07-04T11:33:47;97111.91;;;29.57;44.06
3150;BME280;32503;47.748;8.960;2022-07-04T11:36:17;97108.63;;;29.59;43.72
3150;BME280;32503;47.748;8.960;2022-07-04T11:38:52;97104.59;;;29.21;45.44
3150;BME280;32503;47.748;8.960;2022-07-04T11:41:25;97102.81;;;28.66;45.07
3150;BME280;32503;47.748;8.960;2022-07-04T11:44:12;97094.53;;;28.90;45.93
3150;BME280;32503;47.748;8.960;2022-07-04T11:47:07;97076.66;;;29.06;46.08
3150;BME280;32503;47.748;8.960;2022-07-04T11:49:35;97081.38;;;29.15;46.35
3150;BME280;32503;47.748;8.960;2022-07-04T11:52:02;97083.03;;;28.97;46.31
3150;BME280;32503;47.748;8.960;2022-07-04T11:54:30;97075.25;;;28.44;46.98
3150;BME280;32503;47.748;8.960;2022-07-04T11:57:16;97078.66;;;28.39;47.52
3150;BME280;32503;47.748;8.960;2022-07-04T11:59:52;97073.09;;;28.39;47.53
3150;BME280;32503;47.748;8.960;2022-07-04T12:02:20;97077.09;;;28.37;47.85
3150;BME280;32503;47.748;8.960;2022-07-04T12:04:47;97070.63;;;28.41;47.87
3150;BME280;32503;47.748;8.960;2022-07-04T12:07:16;97064.50;;;28.27;48.72
3150;BME280;32503;47.748;8.960;2022-07-04T12:09:45;97063.09;;;28.23;48.73
3150;BME280;32503;47.748;8.960;2022-07-04T12:12:15;97059.41;;;28.26;49.54
3150;BME280;32503;47.748;8.960;2022-07-04T12:15:03;97047.25;;;28.05;49.64
3150;BME280;32503;47.748;8.960;2022-07-04T12:17:34;97058.00;;;28.21;49.75
3150;BME280;32503;47.748;8.960;2022-07-04T12:20:10;97060.00;;;28.30;49.05
3150;BME280;32503;47.748;8.960;2022-07-04T12:22:41;97053.78;;;27.92;49.08
3150;BME280;32503;47.748;8.960;2022-07-04T12:25:24;97043.63;;;27.34;49.69
3150;BME280;32503;47.748;8.960;2022-07-04T12:27:55;97034.16;;;27.77;49.09
3150;BME280;32503;47.748;8.960;2022-07-04T12:30:24;97037.66;;;28.15;49.28
3150;BME280;32503;47.748;8.960;2022-07-04T12:32:53;97028.38;;;28.27;49.68
3150;BME280;32503;47.748;8.960;2022-07-04T12:35:44;97022.53;;;28.49;49.15
3150;BME280;32503;47.748;8.960;2022-07-04T12:38:15;97016.06;;;28.77;49.59
3150;BME280;32503;47.748;8.960;2022-07-04T12:40:58;97010.97;;;28.99;47.11
3150;BME280;32503;47.748;8.960;2022-07-04T12:43:45;97006.38;;;29.20;46.15
3150;BME280;32503;47.748;8.960;2022-07-04T12:46:14;96996.03;;;29.36;46.65
3150;BME280;32503;47.748;8.960;2022-07-04T12:48:42;96988.78;;;29.68;46.27
3150;BME280;32503;47.748;8.960;2022-07-04T12:51:12;96984.69;;;29.78;44.57
3150;BME280;32503;47.748;8.960;2022-07-04T12:53:41;96987.84;;;30.01;45.09
3150;BME280;32503;47.748;8.960;2022-07-04T12:56:10;96975.41;;;30.02;44.54
3150;BME280;32503;47.748;8.960;2022-07-04T12:58:38;96963.91;;;30.09;44.17
3150;BME280;32503;47.748;8.960;2022-07-04T13:01:05;96968.19;;;30.40;44.21
3150;BME280;32503;47.748;8.960;2022-07-04T13:03:33;96967.81;;;30.68;43.19
3150;BME280;32503;47.748;8.960;2022-07-04T13:06:00;96952.41;;;30.37;42.65
3150;BME280;32503;47.748;8.960;2022-07-04T13:08:27;96957.81;;;30.25;43.87
3150;BME280;32503;47.748;8.960;2022-07-04T13:10:54;96951.88;;;30.18;43.14
3150;BME280;32503;47.748;8.960;2022-07-04T13:13:35;96923.47;;;29.69;43.76
3150;BME280;32503;47.748;8.960;2022-07-04T13:16:04;96952.50;;;29.77;44.97
3150;BME280;32503;47.748;8.960;2022-07-04T13:18:31;96939.50;;;29.74;45.18
3150;BME280;32503;47.748;8.960;2022-07-04T13:20:58;96924.03;;;29.73;44.16
3150;BME280;32503;47.748;8.960;2022-07-04T13:23:25;96943.63;;;29.19;45.80
3150;BME280;32503;47.748;8.960;2022-07-04T13:25:52;96952.25;;;29.36;44.39